Time;durP1;ratioP1;P1;durP2;ratioP2;P2;SDS_P1;SDS_P2;PMS_P1;PMS_P2;Temp;Humidity;BMP_temperature;BMP_pressure;BME280_temperature;BME280_humidity;BME280_pressure;Samples;Min_cycle;Max_cycle;Signal;HPM_P1;HPM_P2
2023/04/16 00:02:10;;;;;;;7.13;5.35;;;10.10;99.90;;;;;;5071743;28;20074;-41
2023/04/16 00:04:36;;;;;;;6.78;6.05;;;10.10;99.90;;;;;;5071730;28;20054;-41
2023/04/16 00:07:02;;;;;;;6.93;5.85;;;10.10;99.90;;;;;;5071843;28;20021;-42
2023/04/16 00:09:27;;;;;;;9.07;5.40;;;10.10;99.90;;;;;;5071682;28;20020;-41
2023/04/16 00:11:53;;;;;;;6.00;5.10;;;10.10;99.90;;;;;;5054067;28;20039;-46
2023/04/16 00:14:18;;;;;;;8.07;5.30;;;10.10;99.90;;;;;;5053714;28;20047;-48
2023/04/16 00:16:44;;;;;;;6.70;5.80;;;10.00;99.90;;;;;;5053739;28;20020;-47
2023/04/16 00:19:10;;;;;;;8.63;5.55;;;10.00;99.90;;;;;;5071908;28;20458;-47
2023/04/16 00:21:35;;;;;;;6.38;5.60;;;10.00;99.90;;;;;;5053531;28;20119;-44
2023/04/16 00:24:01;;;;;;;6.07;5.28;;;10.00;99.90;;;;;;5053408;28;20119;-47
2023/04/16 00:26:26;;;;;;;9.50;5.78;;;10.10;99.90;;;;;;5053426;28;20115;-43
2023/04/16 00:28:53;;;;;;;6.95;5.72;;;10.10;99.90;;;;;;5071549;28;20048;-45
2023/04/16 00:31:29;;;;;;;6.63;5.57;;;10.10;99.90;;;;;;5071558;28;20046;-44
2023/04/16 00:33:55;;;;;;;6.80;5.80;;;10.10;99.90;;;;;;5071416;28;20035;-44
2023/04/16 00:36:22;;;;;;;6.40;5.53;;;10.10;99.90;;;;;;5071644;28;20029;-43
2023/04/16 00:38:47;;;;;;;6.05;5.15;;;10.10;99.90;;;;;;5071526;28;20407;-42
2023/04/16 00:41:13;;;;;;;7.55;5.93;;;10.10;99.90;;;;;;5071293;28;20024;-42
2023/04/16 00:43:38;;;;;;;6.25;5.22;;;10.10;99.90;;;;;;5053281;28;20031;-49
2023/04/16 00:46:07;;;;;;;7.32;5.82;;;10.10;99.90;;;;;;5071459;28;20025;-43
2023/04/16 00:48:34;;;;;;;6.07;5.13;;;10.10;99.90;;;;;;5071441;28;20048;-43
2023/04/16 00:51:00;;;;;;;7.18;5.68;;;10.10;99.90;;;;;;5071502;28;20025;-48
2023/04/16 00:53:26;;;;;;;6.75;5.53;;;10.10;99.90;;;;;;5071394;28;20539;-44
2023/04/16 00:55:54;;;;;;;8.07;6.25;;;10.10;99.90;;;;;;5071276;28;20029;-49
2023/04/16 00:58:20;;;;;;;6.88;6.18;;;10.10;99.90;;;;;;5071436;28;20031;-43
2023/04/16 01:00:46;;;;;;;10.15;5.78;;;10.00;99.90;;;;;;5072515;28;20407;-46
2023/04/16 01:03:11;;;;;;;7.55;5.75;;;10.00;99.90;;;;;;5072324;28;20059;-47
2023/04/16 01:05:37;;;;;;;6.78;5.75;;;10.00;99.90;;;;;;5071563;28;20029;-44
2023/04/16 01:08:03;;;;;;;6.22;5.60;;;9.90;99.90;;;;;;5071202;28;20510;-48
2023/04/16 01:10:28;;;;;;;7.28;6.30;;;9.90;99.90;;;;;;5073059;28;20107;-44
2023/04/16 01:12:54;;;;;;;6.15;5.55;;;9.90;99.90;;;;;;5075127;28;20040;-46
2023/04/16 01:15:20;;;;;;;10.35;5.47;;;9.90;99.90;;;;;;5075164;28;20027;-42
2023/04/16 01:17:46;;;;;;;11.77;6.20;;;9.90;99.90;;;;;;5075151;28;20542;-44
2023/04/16 01:20:11;;;;;;;8.18;6.10;;;9.90;99.90;;;;;;5074932;28;20028;-47
2023/04/16 01:22:37;;;;;;;8.85;6.00;;;9.90;99.90;;;;;;5074789;28;20391;-45
2023/04/16 01:25:02;;;;;;;7.00;6.03;;;10.00;99.90;;;;;;5074843;28;20029;-41
2023/04/16 01:27:28;;;;;;;5.78;5.10;;;10.00;99.90;;;;;;5074831;28;20082;-42
2023/04/16 01:29:55;;;;;;;5.65;5.07;;;10.00;99.90;;;;;;5074663;28;20056;-42
2023/04/16 01:32:20;;;;;;;6.75;5.95;;;9.90;99.90;;;;;;5074779;28;20016;-42
2023/04/16 01:34:46;;;;;;;9.25;6.60;;;9.90;99.90;;;;;;5074449;28;20039;-45
2023/04/16 01:37:12;;;;;;;7.35;6.03;;;9.90;99.90;;;;;;5074779;28;20104;-49
2023/04/16 01:39:37;;;;;;;9.18;6.35;;;9.90;99.90;;;;;;5074517;28;20024;-47
2023/04/16 01:42:03;;;;;;;7.47;6.43;;;9.90;99.90;;;;;;5074723;28;20126;-42
2023/04/16 01:44:29;;;;;;;9.75;6.82;;;9.90;99.90;;;;;;5074441;28;20403;-44
2023/04/16 01:46:55;;;;;;;9.27;6.18;;;9.90;99.90;;;;;;5074444;28;20130;-42
2023/04/16 01:49:21;;;;;;;7.60;6.20;;;9.80;99.90;;;;;;5074315;28;20103;-46
2023/04/16 01:51:47;;;;;;;8.20;6.50;;;9.90;99.90;;;;;;5056345;28;20020;-48
2023/04/16 01:54:12;;;;;;;17.67;7.68;;;9.90;99.90;;;;;;5056329;28;20015;-42
2023/04/16 01:56:38;;;;;;;10.30;6.90;;;9.90;99.90;;;;;;5056466;28;20020;-42
2023/04/16 01:59:03;;;;;;;8.52;6.82;;;9.90;99.90;;;;;;5074240;28;20498;-43
2023/04/16 02:01:29;;;;;;;8.50;6.97;;;9.80;99.90;;;;;;5074518;28;20021;-43
2023/04/16 02:03:56;;;;;;;8.07;7.22;;;9.80;99.90;;;;;;5073955;28;20025;-47
2023/04/16 02:06:21;;;;;;;7.10;6.30;;;9.80;99.90;;;;;;5074174;28;20032;-41
2023/04/16 02:08:47;;;;;;;9.27;6.65;;;9.80;99.90;;;;;;5074031;28;20090;-45
2023/04/16 02:11:12;;;;;;;8.65;7.75;;;9.80;99.90;;;;;;5074241;28;20028;-43
2023/04/16 02:13:38;;;;;;;9.13;7.43;;;9.80;99.90;;;;;;5074056;28;20020;-44
2023/04/16 02:16:04;;;;;;;10.90;7.88;;;9.80;99.90;;;;;;5073991;28;20032;-42
2023/04/16 02:18:29;;;;;;;11.95;7.28;;;9.80;99.90;;;;;;5074297;28;20027;-46
2023/04/16 02:20:57;;;;;;;8.43;6.80;;;9.90;99.90;;;;;;5072949;28;20116;-48
2023/04/16 02:23:22;;;;;;;10.70;7.88;;;9.80;99.90;;;;;;5073452;28;20031;-44
2023/04/16 02:25:48;;;;;;;12.52;9.35;;;9.80;99.90;;;;;;5073802;28;20036;-44
2023/04/16 02:28:15;;;;;;;12.23;8.98;;;9.90;99.90;;;;;;5073798;28;20070;-42
2023/04/16 02:30:41;;;;;;;10.93;8.13;;;9.80;99.90;;;;;;5073600;28;20446;-44
2023/04/16 02:33:09;;;;;;;10.10;7.55;;;9.80;99.90;;;;;;5073480;28;20020;-44
2023/04/16 02:35:36;;;;;;;12.30;8.35;;;9.80;99.90;;;;;;5073745;28;20017;-43
2023/04/16 02:38:03;;;;;;;8.90;7.47;;;9.80;99.90;;;;;;5073555;28;20170;-44
2023/04/16 02:40:29;;;;;;;9.65;7.50;;;9.70;99.90;;;;;;5055579;28;20427;-48
2023/04/16 02:42:55;;;;;;;11.38;8.32;;;9.80;99.90;;;;;;5073410;28;20024;-44
2023/04/16 02:45:21;;;;;;;12.35;8.18;;;9.80;99.90;;;;;;5055267;28;20479;-43
2023/04/16 02:47:47;;;;;;;11.85;8.18;;;9.80;99.90;;;;;;5055438;28;20035;-45
2023/04/16 02:50:13;;;;;;;10.82;8.80;;;9.80;99.90;;;;;;5073439;28;20047;-44
2023/04/16 02:52:38;;;;;;;9.55;7.75;;;9.80;99.90;;;;;;5073900;28;20064;-47
2023/04/16 02:55:05;;;;;;;9.20;7.93;;;9.80;99.90;;;;;;5073643;28;20036;-45
2023/04/16 02:57:30;;;;;;;11.95;9.20;;;9.80;99.90;;;;;;5073457;28;20475;-44
2023/04/16 02:59:55;;;;;;;11.70;8.95;;;9.80;99.90;;;;;;5073088;28;20033;-43
2023/04/16 03:02:21;;;;;;;13.38;8.20;;;9.90;99.90;;;;;;5073177;28;20052;-46
2023/04/16 03:04:46;;;;;;;11.05;9.20;;;9.80;99.90;;;;;;5055157;28;20028;-47
2023/04/16 03:07:12;;;;;;;11.75;9.13;;;9.80;99.90;;;;;;5073410;28;20033;-44
2023/04/16 03:09:38;;;;;;;11.23;8.40;;;9.80;99.90;;;;;;5054968;28;20074;-42
2023/04/16 03:12:04;;;;;;;10.95;8.35;;;9.80;99.90;;;;;;5072446;28;20024;-42
2023/04/16 03:14:30;;;;;;;10.25;8.30;;;9.80;99.90;;;;;;5072883;28;20017;-45
2023/04/16 03:16:56;;;;;;;9.75;8.65;;;9.80;99.90;;;;;;5072935;28;20104;-45
2023/04/16 03:19:21;;;;;;;10.80;8.13;;;9.80;99.90;;;;;;5054998;28;20028;-48
2023/04/16 03:21:47;;;;;;;10.85;8.95;;;9.90;99.90;;;;;;5072785;28;20511;-44
2023/04/16 03:24:12;;;;;;;11.10;8.82;;;9.90;99.90;;;;;;5054647;28;20115;-41
2023/04/16 03:26:38;;;;;;;12.07;9.10;;;9.90;99.90;;;;;;5054626;28;20032;-46
2023/04/16 03:29:03;;;;;;;14.07;9.73;;;9.90;99.90;;;;;;5072649;28;20025;-47
2023/04/16 03:31:29;;;;;;;12.90;9.20;;;9.90;99.90;;;;;;5054630;28;20016;-44
2023/04/16 03:33:54;;;;;;;15.30;9.77;;;9.90;99.90;;;;;;5072126;28;20456;-43
2023/04/16 03:36:21;;;;;;;11.93;9.38;;;9.90;99.90;;;;;;5072530;28;20099;-46
2023/04/16 03:38:47;;;;;;;13.10;9.68;;;9.90;99.90;;;;;;5072457;28;20380;-46
2023/04/16 03:41:12;;;;;;;11.35;8.88;;;9.90;99.90;;;;;;5072215;28;20024;-42
2023/04/16 03:43:38;;;;;;;14.30;9.65;;;9.90;99.90;;;;;;5072263;28;20031;-45
2023/04/16 03:46:04;;;;;;;10.90;8.93;;;9.90;99.90;;;;;;5054262;28;20055;-43
2023/04/16 03:48:29;;;;;;;12.40;9.52;;;9.80;99.90;;;;;;5072266;28;20028;-45
2023/04/16 03:50:55;;;;;;;13.15;9.15;;;9.80;99.90;;;;;;5072567;28;20044;-46
2023/04/16 03:53:20;;;;;;;11.65;9.18;;;9.70;99.90;;;;;;5054138;28;20012;-46
2023/04/16 03:55:52;;;;;;;14.05;9.35;;;9.80;99.90;;;;;;5054113;28;20209;-44
2023/04/16 03:58:18;;;;;;;11.32;9.05;;;9.80;99.90;;;;;;5054350;28;20454;-44
2023/04/16 04:00:44;;;;;;;12.75;9.48;;;9.80;99.90;;;;;;5072122;28;20067;-42
2023/04/16 04:03:10;;;;;;;12.60;9.38;;;9.70;99.90;;;;;;5071978;28;20044;-42
2023/04/16 04:05:40;;;;;;;12.75;10.15;;;9.70;99.90;;;;;;5072339;28;20021;-41
2023/04/16 04:08:06;;;;;;;13.18;9.60;;;9.70;99.90;;;;;;5071969;28;20028;-45
2023/04/16 04:10:32;;;;;;;15.00;9.80;;;9.70;99.90;;;;;;5071661;28;20016;-46
2023/04/16 04:12:58;;;;;;;10.82;9.30;;;9.60;99.90;;;;;;5054011;28;20081;-46
2023/04/16 04:15:23;;;;;;;13.55;9.93;;;9.60;99.90;;;;;;5053867;28;20107;-46
2023/04/16 04:17:49;;;;;;;11.27;9.23;;;9.70;99.90;;;;;;5071786;28;20024;-45
2023/04/16 04:20:15;;;;;;;12.70;10.02;;;9.60;99.90;;;;;;5053553;28;20016;-44
2023/04/16 04:22:40;;;;;;;13.73;10.90;;;9.70;99.90;;;;;;5071823;28;20029;-44
2023/04/16 04:25:07;;;;;;;13.48;9.73;;;9.70;99.90;;;;;;5053833;28;20203;-47
2023/04/16 04:27:32;;;;;;;12.88;9.80;;;9.70;99.90;;;;;;5071862;28;20036;-43
2023/04/16 04:29:58;;;;;;;15.73;10.88;;;9.70;99.90;;;;;;5071807;28;20021;-42
2023/04/16 04:32:23;;;;;;;13.23;9.70;;;9.70;99.90;;;;;;5071598;28;20028;-43
2023/04/16 04:34:49;;;;;;;13.07;9.90;;;9.70;99.90;;;;;;5071375;28;20060;-44
2023/04/16 04:37:14;;;;;;;16.20;11.00;;;9.70;99.90;;;;;;5071613;28;20063;-42
2023/04/16 04:39:40;;;;;;;15.93;9.55;;;9.70;99.90;;;;;;5071428;28;20399;-42
2023/04/16 04:42:05;;;;;;;14.95;10.57;;;9.70;99.90;;;;;;5071520;28;20315;-42
2023/04/16 04:44:31;;;;;;;13.90;9.93;;;9.60;99.90;;;;;;5070680;28;20096;-42
2023/04/16 04:46:56;;;;;;;12.98;9.75;;;9.70;99.90;;;;;;5071365;28;20032;-48
2023/04/16 04:49:22;;;;;;;11.40;9.93;;;9.60;99.90;;;;;;5071326;28;20043;-41
2023/04/16 04:51:48;;;;;;;12.32;9.98;;;9.50;99.90;;;;;;5071484;28;20032;-43
2023/04/16 04:54:13;;;;;;;13.60;9.82;;;9.60;99.90;;;;;;5071564;28;20028;-42
2023/04/16 04:56:39;;;;;;;14.38;9.43;;;9.60;99.90;;;;;;5071462;28;20107;-44
2023/04/16 04:59:04;;;;;;;11.70;8.90;;;9.60;99.90;;;;;;5071431;28;20024;-47
2023/04/16 05:01:30;;;;;;;13.82;10.15;;;9.70;99.90;;;;;;5071403;28;20107;-45
2023/04/16 05:03:55;;;;;;;11.65;9.32;;;9.70;99.90;;;;;;5071066;28;20033;-47
2023/04/16 05:06:21;;;;;;;13.20;9.30;;;9.80;99.90;;;;;;5071228;28;20501;-44
2023/04/16 05:08:46;;;;;;;12.48;9.27;;;9.80;99.90;;;;;;5071261;28;20116;-42
2023/04/16 05:11:12;;;;;;;10.98;9.38;;;9.80;99.90;;;;;;5052874;28;20028;-45
2023/04/16 05:13:37;;;;;;;13.50;8.57;;;9.80;99.90;;;;;;5071133;28;20044;-43
2023/04/16 05:16:03;;;;;;;10.35;8.48;;;9.90;99.90;;;;;;5071165;28;20082;-44
2023/04/16 05:18:29;;;;;;;8.75;7.70;;;9.80;99.90;;;;;;5071081;28;20031;-47
2023/04/16 05:20:55;;;;;;;11.07;8.20;;;9.80;99.90;;;;;;5071094;28;20052;-45
2023/04/16 05:23:20;;;;;;;11.63;9.27;;;9.80;99.90;;;;;;5071290;28;20063;-45
2023/04/16 05:25:46;;;;;;;11.52;8.85;;;9.90;99.90;;;;;;5053160;28;20024;-47
2023/04/16 05:28:11;;;;;;;11.35;8.57;;;9.90;99.90;;;;;;5071213;28;20021;-45
2023/04/16 05:30:37;;;;;;;11.52;9.05;;;9.90;99.90;;;;;;5070899;28;20056;-44
2023/04/16 05:33:02;;;;;;;12.52;9.52;;;9.90;99.90;;;;;;5070974;28;20095;-44
2023/04/16 05:35:28;;;;;;;11.27;8.85;;;9.90;99.90;;;;;;5071187;28;20112;-46
2023/04/16 05:37:53;;;;;;;11.75;9.02;;;9.90;99.90;;;;;;5052955;28;20024;-40
2023/04/16 05:40:19;;;;;;;15.98;10.55;;;9.90;99.90;;;;;;5070981;28;20054;-47
2023/04/16 05:42:44;;;;;;;11.07;9.40;;;9.80;99.90;;;;;;5071182;28;20020;-51
2023/04/16 05:45:10;;;;;;;13.90;9.63;;;9.80;99.90;;;;;;5070793;28;20036;-43
2023/04/16 05:47:36;;;;;;;11.73;8.88;;;9.80;99.90;;;;;;5070937;28;20100;-43
2023/04/16 05:50:01;;;;;;;15.30;10.13;;;9.80;99.90;;;;;;5070933;28;20028;-44
2023/04/16 05:52:27;;;;;;;14.10;9.50;;;9.80;99.90;;;;;;5070833;28;20031;-50
2023/04/16 05:54:52;;;;;;;13.85;9.50;;;9.80;99.90;;;;;;5070691;28;20029;-45
2023/04/16 05:57:18;;;;;;;14.75;9.43;;;9.80;99.90;;;;;;5074177;28;20024;-41
2023/04/16 05:59:43;;;;;;;15.07;9.90;;;9.90;99.90;;;;;;5074259;28;20028;-47
2023/04/16 06:02:09;;;;;;;14.88;9.82;;;9.90;99.90;;;;;;5074224;28;20028;-42
2023/04/16 06:04:34;;;;;;;13.88;11.07;;;9.90;99.90;;;;;;5074228;28;20024;-45
2023/04/16 06:07:00;;;;;;;13.93;9.95;;;9.90;99.90;;;;;;5074432;28;20021;-43
2023/04/16 06:09:26;;;;;;;14.13;10.32;;;9.90;99.90;;;;;;5074253;28;20023;-47
2023/04/16 06:11:51;;;;;;;15.13;11.43;;;10.10;99.90;;;;;;5074387;28;20081;-46
2023/04/16 06:14:17;;;;;;;13.77;10.05;;;10.10;99.90;;;;;;5074205;28;20807;-47
2023/04/16 06:16:42;;;;;;;13.40;10.40;;;10.10;99.90;;;;;;5074297;28;20025;-47
2023/04/16 06:19:08;;;;;;;14.40;10.88;;;10.00;99.90;;;;;;5073926;28;20020;-47
2023/04/16 06:21:33;;;;;;;16.58;10.80;;;10.10;99.90;;;;;;5073977;28;20028;-47
2023/04/16 06:23:59;;;;;;;17.27;10.75;;;10.10;99.90;;;;;;5055960;28;20059;-47
2023/04/16 06:26:25;;;;;;;14.15;10.90;;;10.10;99.90;;;;;;5073887;28;20032;-46
2023/04/16 06:28:50;;;;;;;15.25;10.75;;;10.10;99.90;;;;;;5073729;28;20021;-45
2023/04/16 06:31:16;;;;;;;13.48;10.82;;;10.20;99.90;;;;;;5073771;28;20029;-51
2023/04/16 06:33:42;;;;;;;14.20;10.68;;;10.20;99.90;;;;;;5073919;28;20032;-49
2023/04/16 06:36:07;;;;;;;13.52;10.20;;;10.20;99.90;;;;;;5074711;28;20021;-48
2023/04/16 06:38:33;;;;;;;15.85;11.00;;;10.20;99.90;;;;;;5073716;28;20118;-48
2023/04/16 06:40:58;;;;;;;13.77;10.30;;;10.40;99.90;;;;;;5073755;28;20028;-49
2023/04/16 06:43:24;;;;;;;14.23;11.25;;;10.40;99.90;;;;;;5073631;28;20240;-48
2023/04/16 06:45:50;;;;;;;18.23;12.27;;;10.50;99.90;;;;;;5073654;28;20068;-50
2023/04/16 06:48:15;;;;;;;14.18;10.55;;;10.50;99.90;;;;;;5073903;28;20033;-49
2023/04/16 06:50:41;;;;;;;13.73;10.52;;;10.50;99.90;;;;;;5073414;28;20035;-45
2023/04/16 06:53:06;;;;;;;15.55;11.32;;;10.50;99.90;;;;;;5073319;28;20029;-47
2023/04/16 06:55:32;;;;;;;14.63;11.77;;;10.50;99.90;;;;;;5073339;28;20387;-46
2023/04/16 06:57:57;;;;;;;15.55;12.20;;;10.50;99.90;;;;;;5073404;28;20120;-51
2023/04/16 07:00:23;;;;;;;17.65;11.77;;;10.50;99.90;;;;;;5073142;28;20024;-45
2023/04/16 07:02:48;;;;;;;15.18;10.80;;;10.60;99.90;;;;;;5073169;28;20047;-46
2023/04/16 07:05:14;;;;;;;16.15;11.90;;;10.50;99.90;;;;;;5073322;28;20051;-46
2023/04/16 07:07:39;;;;;;;16.35;11.60;;;10.50;99.90;;;;;;5072554;28;20032;-47
2023/04/16 07:10:05;;;;;;;14.32;11.00;;;10.50;99.90;;;;;;5072690;28;20100;-48
2023/04/16 07:12:32;;;;;;;16.65;11.88;;;10.50;99.90;;;;;;5073139;28;20440;-49
2023/04/16 07:14:57;;;;;;;14.95;11.48;;;10.50;99.90;;;;;;5072921;28;20387;-47
2023/04/16 07:17:23;;;;;;;18.00;12.32;;;10.50;99.90;;;;;;5073046;28;20053;-48
2023/04/16 07:19:49;;;;;;;14.25;11.45;;;10.50;99.90;;;;;;5072889;28;20024;-48
2023/04/16 07:22:14;;;;;;;15.00;11.45;;;10.40;99.90;;;;;;5072668;28;20020;-51
2023/04/16 07:24:40;;;;;;;15.82;11.63;;;10.40;99.90;;;;;;5072636;28;20074;-48
2023/04/16 07:27:05;;;;;;;15.70;12.85;;;10.30;99.90;;;;;;5054812;28;20369;-46
2023/04/16 07:29:31;;;;;;;16.95;12.90;;;10.20;99.90;;;;;;5072683;28;20021;-45
2023/04/16 07:31:56;;;;;;;15.60;12.18;;;10.20;99.90;;;;;;5072458;28;20043;-49
2023/04/16 07:34:22;;;;;;;15.25;10.93;;;10.10;99.90;;;;;;5072890;28;20059;-50
2023/04/16 07:36:47;;;;;;;16.45;11.98;;;10.10;99.90;;;;;;5072577;28;20040;-45
2023/04/16 07:39:13;;;;;;;15.40;11.75;;;10.10;99.90;;;;;;5054409;28;20025;-46
2023/04/16 07:41:39;;;;;;;19.35;12.73;;;10.10;99.90;;;;;;5072560;28;20483;-45
2023/04/16 07:44:05;;;;;;;18.35;11.80;;;10.10;99.90;;;;;;5072260;28;20108;-47
2023/04/16 07:46:31;;;;;;;13.35;10.18;;;10.00;99.90;;;;;;5072454;28;20108;-46
2023/04/16 07:48:56;;;;;;;14.25;11.52;;;10.10;99.90;;;;;;5072297;28;20028;-45
2023/04/16 07:51:22;;;;;;;15.32;11.27;;;10.00;99.90;;;;;;5072284;28;20035;-47
2023/04/16 07:53:51;;;;;;;14.82;11.57;;;10.10;99.90;;;;;;5072364;28;20028;-47
2023/04/16 07:56:16;;;;;;;14.80;10.88;;;10.10;99.90;;;;;;5072277;28;20031;-47
2023/04/16 07:58:42;;;;;;;13.98;11.43;;;10.10;99.90;;;;;;5072099;28;20445;-50
2023/04/16 08:01:07;;;;;;;15.00;10.50;;;10.10;99.90;;;;;;5072246;28;20024;-48
2023/04/16 08:03:33;;;;;;;15.23;11.05;;;10.10;99.90;;;;;;5072024;28;20024;-48
2023/04/16 08:05:58;;;;;;;13.75;10.32;;;10.10;99.90;;;;;;5072153;28;20510;-48
2023/04/16 08:08:24;;;;;;;12.82;9.52;;;10.00;99.90;;;;;;5072559;28;20476;-50
2023/04/16 08:10:54;;;;;;;13.05;9.60;;;10.10;99.90;;;;;;5071741;28;20028;-45
2023/04/16 08:13:21;;;;;;;13.15;10.65;;;10.00;99.90;;;;;;5072400;28;20029;-46
2023/04/16 08:15:46;;;;;;;10.80;9.05;;;10.10;99.90;;;;;;5071984;28;20033;-47
2023/04/16 08:18:14;;;;;;;11.98;8.95;;;10.10;99.90;;;;;;5071850;28;20040;-49
2023/04/16 08:20:40;;;;;;;12.65;9.40;;;10.10;99.90;;;;;;5070886;28;20047;-45
2023/04/16 08:23:06;;;;;;;13.20;9.70;;;10.10;99.90;;;;;;5071885;28;20069;-42
2023/04/16 08:25:31;;;;;;;11.75;9.60;;;10.20;99.90;;;;;;5071858;28;20031;-47
2023/04/16 08:27:57;;;;;;;11.90;8.90;;;10.20;99.90;;;;;;5071891;28;20024;-47
2023/04/16 08:30:22;;;;;;;12.77;9.18;;;10.20;99.90;;;;;;5071770;28;20528;-49
2023/04/16 08:32:48;;;;;;;11.73;8.65;;;10.20;99.90;;;;;;5071692;28;20071;-46
2023/04/16 08:35:14;;;;;;;11.85;8.65;;;10.10;99.90;;;;;;5071610;28;20135;-45
2023/04/16 08:37:39;;;;;;;11.77;7.75;;;10.10;99.90;;;;;;5071715;28;20107;-45
2023/04/16 08:40:06;;;;;;;12.18;8.48;;;10.10;99.90;;;;;;5072023;28;20165;-48
2023/04/16 08:42:39;;;;;;;8.35;7.50;;;10.10;99.90;;;;;;5072184;28;20020;-46
2023/04/16 08:45:25;;;;;;;9.43;7.88;;;10.10;99.90;;;;;;5071631;28;20036;-45
2023/04/16 08:47:51;;;;;;;;;;;10.10;99.90;;;;;;5072204;28;20021;-45
2023/04/16 08:50:27;;;;;;;10.10;7.65;;;10.50;99.90;;;;;;5071646;28;19909;-49
2023/04/16 08:52:58;;;;;;;12.07;8.95;;;10.10;99.90;;;;;;5071396;28;20387;-49
2023/04/16 08:55:31;;;;;;;11.75;9.05;;;10.20;99.90;;;;;;5071402;28;20024;-46
2023/04/16 08:57:58;;;;;;;12.77;9.45;;;10.30;99.90;;;;;;5058437;28;20045;-47
2023/04/16 09:00:24;;;;;;;12.48;9.25;;;10.30;99.90;;;;;;5063228;28;20021;-48
2023/04/16 09:02:50;;;;;;;16.33;9.98;;;10.30;99.90;;;;;;5070795;28;20024;-48
2023/04/16 09:05:16;;;;;;;14.05;9.82;;;10.30;99.90;;;;;;5070868;28;20032;-48
2023/04/16 09:07:45;;;;;;;11.32;9.68;;;10.40;99.90;;;;;;5052747;28;20054;-50
2023/04/16 09:10:11;;;;;;;12.70;9.55;;;10.40;99.90;;;;;;5066772;28;20031;-47
2023/04/16 09:12:38;;;;;;;14.35;10.18;;;10.40;99.90;;;;;;5071683;28;20123;-47
2023/04/16 09:15:05;;;;;;;11.88;9.65;;;10.40;99.90;;;;;;5071155;28;20630;-44
2023/04/16 09:17:31;;;;;;;15.75;10.63;;;10.40;99.90;;;;;;5053217;28;20029;-46
2023/04/16 09:19:56;;;;;;;11.95;9.20;;;10.40;99.90;;;;;;5071181;28;20033;-44
2023/04/16 09:22:22;;;;;;;12.60;10.68;;;10.40;99.90;;;;;;5052891;28;20230;-47
2023/04/16 09:24:47;;;;;;;16.17;11.25;;;10.40;99.90;;;;;;5072112;28;20021;-46
2023/04/16 09:27:13;;;;;;;13.05;11.05;;;10.50;99.90;;;;;;5071974;28;20056;-49
2023/04/16 09:29:40;;;;;;;15.45;11.80;;;10.50;99.90;;;;;;5034706;28;20400;-45
2023/04/16 09:32:10;;;;;;;14.63;11.05;;;10.50;99.90;;;;;;5055522;28;20045;-43
2023/04/16 09:34:59;;;;;;;15.23;11.25;;;10.60;99.90;;;;;;5055294;28;20017;-48
2023/04/16 09:37:28;;;;;;;15.00;11.80;;;10.60;99.90;;;;;;5062544;28;20027;-46
2023/04/16 09:39:58;;;;;;;14.63;11.40;;;10.70;99.90;;;;;;5072865;28;20028;-45
2023/04/16 09:42:32;;;;;;;14.93;12.13;;;10.60;99.90;;;;;;5075046;28;20029;-46
2023/04/16 09:44:58;;;;;;;16.80;11.43;;;10.60;99.90;;;;;;5057008;28;20463;-47
2023/04/16 09:47:41;;;;;;;15.65;11.30;;;10.60;99.90;;;;;;5074628;28;20032;-48
2023/04/16 09:50:09;;;;;;;15.57;10.95;;;10.60;99.90;;;;;;5074696;28;20484;-46
2023/04/16 09:52:37;;;;;;;13.43;10.63;;;10.70;99.90;;;;;;5074149;28;20032;-48
2023/04/16 09:55:03;;;;;;;14.82;10.73;;;10.70;99.90;;;;;;5056613;28;20033;-44
2023/04/16 09:57:29;;;;;;;13.43;10.65;;;10.70;99.90;;;;;;5074816;28;20029;-48
2023/04/16 10:00:01;;;;;;;13.45;10.45;;;10.80;99.90;;;;;;5074701;28;20485;-50
2023/04/16 10:02:28;;;;;;;14.40;11.88;;;10.80;99.90;;;;;;5073094;28;20158;-46
2023/04/16 10:04:53;;;;;;;15.10;11.50;;;10.90;99.90;;;;;;5055312;28;20071;-47
2023/04/16 10:07:19;;;;;;;15.65;10.98;;;11.00;99.90;;;;;;5059794;28;20560;-49
2023/04/16 10:09:47;;;;;;;16.48;11.57;;;11.00;99.90;;;;;;5074492;28;20377;-47
2023/04/16 10:12:13;;;;;;;14.82;11.00;;;11.00;99.90;;;;;;5073862;28;20024;-52
2023/04/16 10:14:39;;;;;;;15.60;11.48;;;11.00;99.90;;;;;;5074068;28;20028;-47
2023/04/16 10:17:05;;;;;;;14.85;11.15;;;11.00;99.90;;;;;;5074537;28;20491;-47
2023/04/16 10:19:32;;;;;;;13.38;11.38;;;11.10;99.90;;;;;;5068818;28;20036;-46
2023/04/16 10:21:58;;;;;;;14.85;10.40;;;11.10;99.90;;;;;;5055181;28;20080;-46
2023/04/16 10:24:31;;;;;;;14.25;10.90;;;11.10;99.90;;;;;;5058246;28;20037;-46
2023/04/16 10:26:58;;;;;;;13.32;10.50;;;11.10;99.90;;;;;;5074255;28;20039;-50
2023/04/16 10:29:25;;;;;;;18.55;11.70;;;11.10;99.90;;;;;;5056370;28;20457;-45
2023/04/16 10:31:52;;;;;;;17.90;12.18;;;11.30;99.90;;;;;;5041301;28;20344;-50
2023/04/16 10:34:19;;;;;;;16.55;12.13;;;11.20;99.90;;;;;;5068611;28;20023;-43
2023/04/16 10:36:49;;;;;;;28.70;19.08;;;11.20;99.90;;;;;;5054529;28;20052;-46
2023/04/16 10:39:21;;;;;;;43.38;29.13;;;11.30;99.90;;;;;;5053071;28;20446;-47
2023/04/16 10:41:47;;;;;;;74.82;43.55;;;11.30;99.90;;;;;;5051102;28;20048;-44
2023/04/16 10:44:16;;;;;;;16.27;12.05;;;11.40;99.90;;;;;;5035564;28;20025;-46
2023/04/16 10:46:45;;;;;;;15.38;11.27;;;11.40;99.90;;;;;;5053480;28;20443;-49
2023/04/16 10:49:16;;;;;;;15.32;11.85;;;11.40;99.90;;;;;;5053358;28;20028;-48
2023/04/16 10:51:58;;;;;;;16.48;11.27;;;11.50;99.90;;;;;;5053062;28;20393;-48
2023/04/16 10:54:29;;;;;;;13.60;11.23;;;11.50;99.90;;;;;;5053077;28;20059;-52
2023/04/16 10:57:01;;;;;;;15.05;11.60;;;11.50;99.90;;;;;;5048155;28;20060;-47
2023/04/16 10:59:31;;;;;;;14.60;11.13;;;11.50;99.90;;;;;;5072736;28;20031;-47
2023/04/16 11:01:58;;;;;;;16.15;12.10;;;11.50;99.90;;;;;;5073292;28;20047;-51
2023/04/16 11:04:24;;;;;;;17.05;11.40;;;11.50;99.90;;;;;;5073562;28;20025;-48
2023/04/16 11:07:14;;;;;;;15.93;11.85;;;11.50;99.90;;;;;;5072894;28;20046;-46
2023/04/16 11:09:53;;;;;;;18.08;13.70;;;11.50;99.90;;;;;;5072902;28;20013;-52
2023/04/16 11:12:26;;;;;;;19.77;14.15;;;11.50;99.90;;;;;;5072516;28;20086;-44
2023/04/16 11:14:59;;;;;;;16.58;12.20;;;11.40;99.90;;;;;;5054394;28;20025;-43
2023/04/16 11:17:29;;;;;;;15.35;11.52;;;11.50;99.90;;;;;;5072957;28;20032;-50
2023/04/16 11:19:55;;;;;;;15.55;12.05;;;11.60;99.90;;;;;;5072668;28;20187;-50
2023/04/16 11:22:20;;;;;;;13.20;10.77;;;11.60;99.90;;;;;;5055110;28;20726;-49
2023/04/16 11:24:52;;;;;;;15.73;11.30;;;11.60;99.90;;;;;;5072802;28;20073;-46
2023/04/16 11:27:18;;;;;;;17.58;12.32;;;11.60;99.90;;;;;;5072779;28;20387;-47
2023/04/16 11:29:43;;;;;;;15.70;11.15;;;11.60;99.90;;;;;;5072475;28;20151;-50
2023/04/16 11:32:09;;;;;;;19.60;12.05;;;11.60;99.90;;;;;;5072343;28;20020;-49
2023/04/16 11:34:43;;;;;;;18.38;12.48;;;11.60;99.90;;;;;;5054547;28;20096;-47
2023/04/16 11:37:09;;;;;;;16.63;11.18;;;11.60;99.90;;;;;;5072426;28;20036;-49
2023/04/16 11:39:47;;;;;;;15.75;11.55;;;11.60;99.90;;;;;;5072595;28;20025;-48
2023/04/16 11:42:20;;;;;;;20.80;13.25;;;11.60;99.90;;;;;;5072354;28;20062;-47
2023/04/16 11:44:45;;;;;;;20.40;12.75;;;11.60;99.90;;;;;;5071864;28;20462;-49
2023/04/16 11:47:12;;;;;;;19.05;13.23;;;11.70;99.90;;;;;;5072089;28;20029;-50
2023/04/16 11:49:38;;;;;;;18.50;13.60;;;11.70;99.90;;;;;;5063123;28;20216;-55
2023/04/16 11:52:03;;;;;;;19.05;13.23;;;11.60;99.90;;;;;;5071861;28;20013;-46
2023/04/16 11:54:33;;;;;;;16.75;13.50;;;11.60;99.90;;;;;;5053617;28;20056;-49
2023/04/16 11:56:59;;;;;;;19.13;12.60;;;11.70;99.90;;;;;;5072188;28;20017;-47
2023/04/16 11:59:26;;;;;;;19.83;13.88;;;11.70;99.90;;;;;;5069696;28;20028;-48
2023/04/16 12:01:54;;;;;;;21.02;14.80;;;11.70;99.90;;;;;;5044365;28;20040;-49
2023/04/16 12:04:25;;;;;;;24.38;16.63;;;11.80;99.90;;;;;;5051908;28;20040;-47
2023/04/16 12:07:12;;;;;;;23.73;16.10;;;12.00;99.90;;;;;;5063861;28;20029;-48
2023/04/16 12:09:40;;;;;;;21.20;15.52;;;11.90;99.90;;;;;;5048763;28;20021;-46
2023/04/16 12:12:29;;;;;;;21.60;15.48;;;12.10;99.90;;;;;;5052652;28;20025;-47
2023/04/16 12:14:58;;;;;;;21.65;14.85;;;12.20;99.90;;;;;;5071767;28;20102;-48
2023/04/16 12:17:24;;;;;;;23.35;14.82;;;12.30;99.90;;;;;;5064347;28;20024;-45
2023/04/16 12:19:51;;;;;;;19.75;14.63;;;12.40;99.90;;;;;;5051593;28;20025;-46
2023/04/16 12:22:25;;;;;;;20.88;15.02;;;12.50;99.90;;;;;;5052016;28;20048;-44
2023/04/16 12:24:55;;;;;;;18.17;14.68;;;12.50;99.90;;;;;;5051414;28;20484;-42
2023/04/16 12:27:21;;;;;;;23.90;14.48;;;12.60;99.90;;;;;;5067389;28;20036;-44
2023/04/16 12:30:06;;;;;;;32.05;22.35;;;12.70;99.90;;;;;;5071795;28;20142;-41
2023/04/16 12:32:32;;;;;;;48.97;33.53;;;12.80;99.90;;;;;;5070944;28;20024;-45
2023/04/16 12:34:57;;;;;;;42.63;28.73;;;12.90;99.90;;;;;;5071221;28;20044;-45
2023/04/16 12:37:23;;;;;;;21.40;16.02;;;12.90;99.90;;;;;;5071505;28;20033;-43